createdAt,value
2023-01-02T00:01:58.704Z,101152.81
2023-01-02T00:04:25.212Z,101157.78
2023-01-02T00:06:51.823Z,101143.03
2023-01-02T00:09:20.000Z,101140.31
2023-01-02T00:11:46.621Z,101130.59
2023-01-02T00:14:13.192Z,101123.66
2023-01-02T00:16:39.780Z,101121.28
2023-01-02T00:19:08.569Z,101115.72
2023-01-02T00:21:36.239Z,101116.50
2023-01-02T00:24:02.778Z,101120.38
2023-01-02T00:26:30.156Z,101125.38
2023-01-02T00:28:56.728Z,101120.13
2023-01-02T00:31:23.436Z,101122.66
2023-01-02T00:33:49.986Z,101121.53
2023-01-02T00:36:16.582Z,101125.50
2023-01-02T00:38:43.184Z,101116.03
2023-01-02T00:41:10.166Z,101114.97
2023-01-02T00:43:36.912Z,101110.78
2023-01-02T00:46:10.881Z,101105.19
2023-01-02T00:48:38.420Z,101100.88
2023-01-02T00:51:05.114Z,101098.16
2023-01-02T00:53:31.612Z,101112.63
2023-01-02T00:55:58.162Z,101111.06
2023-01-02T00:58:24.666Z,101106.78
2023-01-02T01:00:51.302Z,101102.91
2023-01-02T01:03:17.928Z,101098.25
2023-01-02T01:05:44.696Z,101102.72
2023-01-02T01:08:11.307Z,101097.97
2023-01-02T01:10:38.290Z,101095.72
2023-01-02T01:13:05.443Z,101100.78
2023-01-02T01:15:33.203Z,101098.16
2023-01-02T01:17:59.785Z,101089.56
2023-01-02T01:20:26.517Z,101088.34
2023-01-02T01:22:53.119Z,101081.00
2023-01-02T01:25:19.726Z,101065.91
2023-01-02T01:27:46.319Z,101071.69
2023-01-02T01:30:12.989Z,101063.88
2023-01-02T01:32:39.562Z,101068.44
2023-01-02T01:35:06.687Z,101055.41
2023-01-02T01:37:33.314Z,101060.28
2023-01-02T01:39:59.829Z,101051.88
2023-01-02T01:42:32.630Z,101061.19
2023-01-02T01:44:59.124Z,101058.03
2023-01-02T01:47:39.841Z,101045.69
2023-01-02T01:50:18.888Z,101041.59
2023-01-02T01:53:13.843Z,101041.72
2023-01-02T01:56:02.127Z,101038.41
2023-01-02T01:58:54.762Z,101025.50
2023-01-02T02:01:21.390Z,101025.50
2023-01-02T02:03:49.691Z,101022.88
2023-01-02T02:06:16.718Z,101015.94
2023-01-02T02:08:57.511Z,101019.81
2023-01-02T02:11:24.361Z,101010.16
2023-01-02T02:13:50.990Z,101006.28
2023-01-02T02:16:17.588Z,101011.44
2023-01-02T02:19:07.378Z,101005.66
2023-01-02T02:22:02.183Z,100984.91
2023-01-02T02:24:50.051Z,100977.47
2023-01-02T02:27:58.193Z,100982.47
2023-01-02T02:30:34.894Z,100968.59
2023-01-02T02:33:13.073Z,100969.75
2023-01-02T02:36:18.878Z,100977.47
2023-01-02T02:39:24.041Z,100959.59
2023-01-02T02:42:14.297Z,100962.00
2023-01-02T02:45:01.887Z,100962.88
2023-01-02T02:47:34.821Z,100968.53
2023-01-02T02:50:12.615Z,100959.50
2023-01-02T02:52:46.734Z,100952.66
2023-01-02T02:55:17.161Z,100953.50
2023-01-02T02:57:44.863Z,100950.38
2023-01-02T03:00:14.996Z,100950.88
2023-01-02T03:02:41.641Z,100943.94
2023-01-02T03:05:12.443Z,100939.34
2023-01-02T03:07:46.851Z,100937.50
2023-01-02T03:10:51.007Z,100929.69
2023-01-02T03:13:40.826Z,100924.34
2023-01-02T03:16:30.417Z,100935.06
2023-01-02T03:19:10.994Z,100932.69
2023-01-02T03:21:48.034Z,100929.69
2023-01-02T03:24:16.840Z,100932.69
2023-01-02T03:26:45.513Z,100931.88
2023-01-02T03:29:30.385Z,100932.56
2023-01-02T03:31:58.255Z,100927.19
2023-01-02T03:34:27.343Z,100923.09
2023-01-02T03:36:58.543Z,100921.22
2023-01-02T03:39:28.536Z,100917.34
2023-01-02T03:42:00.435Z,100927.06
2023-01-02T03:44:34.783Z,100921.28
2023-01-02T03:47:27.535Z,100931.75
2023-01-02T03:49:54.883Z,100922.22
2023-01-02T03:52:25.904Z,100926.66
2023-01-02T03:54:54.058Z,100925.91
2023-01-02T03:57:23.152Z,100924.97
2023-01-02T04:00:00.518Z,100919.03
2023-01-02T04:02:46.398Z,100921.34
2023-01-02T04:05:28.807Z,100921.88
2023-01-02T04:08:03.233Z,100913.22
2023-01-02T04:10:30.491Z,100904.31
2023-01-02T04:13:01.899Z,100907.53
2023-01-02T04:15:32.373Z,100914.84
2023-01-02T04:18:11.851Z,100912.06
2023-01-02T04:20:41.782Z,100902.78
2023-01-02T04:23:15.789Z,100906.94
2023-01-02T04:25:49.551Z,100914.22
2023-01-02T04:28:21.106Z,100914.38
2023-01-02T04:30:52.584Z,100908.09
2023-01-02T04:33:19.901Z,100900.38
2023-01-02T04:35:46.489Z,100898.91
2023-01-02T04:38:13.107Z,100904.81
2023-01-02T04:40:39.808Z,100890.38
2023-01-02T04:43:08.465Z,100892.88
2023-01-02T04:45:35.191Z,100894.31
2023-01-02T04:48:01.844Z,100906.56
2023-01-02T04:50:28.364Z,100900.59
2023-01-02T04:52:54.910Z,100901.38
2023-01-02T04:55:21.483Z,100904.88
2023-01-02T04:57:48.153Z,100909.13
2023-01-02T05:00:15.542Z,100901.59
2023-01-02T05:02:42.271Z,100894.38
2023-01-02T05:05:09.276Z,100905.38
2023-01-02T05:07:37.039Z,100902.28
2023-01-02T05:10:04.294Z,100903.75
2023-01-02T05:12:34.413Z,100910.81
2023-01-02T05:15:01.297Z,100897.41
2023-01-02T05:17:27.873Z,100899.06
2023-01-02T05:19:54.415Z,100902.97
2023-01-02T05:22:39.284Z,100903.84
2023-01-02T05:25:06.297Z,100900.03
2023-01-02T05:27:33.347Z,100908.59
2023-01-02T05:29:59.905Z,100905.88
2023-01-02T05:32:27.714Z,100896.59
2023-01-02T05:34:54.221Z,100893.03
2023-01-02T05:37:20.772Z,100890.34
2023-01-02T05:39:47.272Z,100887.63
2023-01-02T05:42:13.811Z,100893.44
2023-01-02T05:44:40.361Z,100884.88
2023-01-02T05:47:07.797Z,100888.44
2023-01-02T05:49:36.872Z,100880.56
2023-01-02T05:52:03.740Z,100886.28
2023-01-02T05:54:30.514Z,100878.88
2023-01-02T05:56:57.082Z,100881.28
2023-01-02T05:59:23.931Z,100880.94
2023-01-02T06:01:50.625Z,100884.25
2023-01-02T06:04:19.841Z,100880.38
2023-01-02T06:06:47.205Z,100875.00
2023-01-02T06:09:14.757Z,100874.59
2023-01-02T06:11:41.439Z,100864.56
2023-01-02T06:14:10.579Z,100878.59
2023-01-02T06:16:38.323Z,100881.31
2023-01-02T06:19:05.784Z,100884.44
2023-01-02T06:21:32.694Z,100880.56
2023-01-02T06:23:59.300Z,100881.75
2023-01-02T06:26:32.742Z,100881.84
2023-01-02T06:29:01.550Z,100886.13
2023-01-02T06:31:29.616Z,100877.97
2023-01-02T06:34:01.120Z,100876.38
2023-01-02T06:36:30.767Z,100883.72
2023-01-02T06:38:57.708Z,100885.81
2023-01-02T06:41:24.425Z,100885.84
2023-01-02T06:43:52.879Z,100890.41
2023-01-02T06:46:21.427Z,100893.66
2023-01-02T06:48:48.309Z,100893.66
2023-01-02T06:51:18.596Z,100895.44
2023-01-02T06:53:45.447Z,100891.34
2023-01-02T06:56:13.996Z,100898.06
2023-01-02T06:58:40.651Z,100905.88
2023-01-02T07:01:09.648Z,100902.41
2023-01-02T07:03:36.628Z,100899.31
2023-01-02T07:06:07.074Z,100903.50
2023-01-02T07:08:33.946Z,100898.91
2023-01-02T07:11:10.262Z,100907.88
2023-01-02T07:13:37.420Z,100916.06
2023-01-02T07:16:05.569Z,100916.50
2023-01-02T07:18:32.428Z,100918.75
2023-01-02T07:20:59.130Z,100930.13
2023-01-02T07:23:26.160Z,100920.78
2023-01-02T07:25:54.326Z,100907.16
2023-01-02T07:28:20.950Z,100915.34
2023-01-02T07:30:47.771Z,100918.91
2023-01-02T07:33:14.371Z,100906.75
2023-01-02T07:35:41.239Z,100909.16
2023-01-02T07:38:07.862Z,100921.97
2023-01-02T07:40:34.417Z,100929.75
2023-01-02T07:43:00.931Z,100925.50
2023-01-02T07:45:27.486Z,100921.19
2023-01-02T07:47:54.065Z,100926.59
2023-01-02T07:50:20.569Z,100915.75
2023-01-02T07:52:47.121Z,100925.06
2023-01-02T07:55:14.069Z,100931.41
2023-01-02T07:57:40.991Z,100931.81
2023-01-02T08:00:08.042Z,100941.13
2023-01-02T08:02:38.733Z,100928.81
2023-01-02T08:05:05.610Z,100933.69
2023-01-02T08:07:32.203Z,100940.31
2023-01-02T08:09:58.723Z,100936.91
2023-01-02T08:12:25.303Z,100934.22
2023-01-02T08:14:51.820Z,100926.84
2023-01-02T08:17:18.387Z,100927.34
2023-01-02T08:19:45.047Z,100930.47
2023-01-02T08:22:11.609Z,100936.75
2023-01-02T08:24:38.144Z,100932.84
2023-01-02T08:27:04.684Z,100938.72
2023-01-02T08:29:31.332Z,100945.84
2023-01-02T08:31:59.253Z,100937.69
2023-01-02T08:34:26.081Z,100936.84
2023-01-02T08:36:53.817Z,100940.44
2023-01-02T08:39:20.395Z,100933.34
2023-01-02T08:41:46.984Z,100932.69
2023-01-02T08:44:13.582Z,100937.47
2023-01-02T08:46:42.858Z,100949.09
2023-01-02T08:49:10.879Z,100948.69
2023-01-02T08:51:37.484Z,100949.50
2023-01-02T08:54:07.567Z,100948.38
2023-01-02T08:56:35.367Z,100953.31
2023-01-02T08:59:10.580Z,100952.09
2023-01-02T09:01:37.684Z,100945.28
2023-01-02T09:04:11.604Z,100950.28
2023-01-02T09:06:39.513Z,100967.38
2023-01-02T09:09:11.645Z,100965.56
2023-01-02T09:11:43.533Z,100962.03
2023-01-02T09:14:10.022Z,100958.53
2023-01-02T09:16:36.579Z,100954.03
2023-01-02T09:19:05.191Z,100958.34
2023-01-02T09:21:31.830Z,100957.19
2023-01-02T09:23:58.409Z,100957.94
2023-01-02T09:26:25.492Z,100958.72
2023-01-02T09:28:52.351Z,100964.19
2023-01-02T09:31:19.613Z,100962.75
2023-01-02T09:33:48.142Z,100959.63
2023-01-02T09:36:17.146Z,100960.88
2023-01-02T09:38:43.997Z,100961.34
2023-01-02T09:41:25.866Z,100957.47
2023-01-02T09:43:56.770Z,100965.31
2023-01-02T09:46:31.807Z,100959.03
2023-01-02T09:49:00.370Z,100950.88
2023-01-02T09:51:27.401Z,100938.84
2023-01-02T09:53:54.146Z,100945.06
2023-01-02T09:56:33.948Z,100919.03
2023-01-02T09:59:33.305Z,100926.75
2023-01-02T10:02:06.074Z,100929.97
2023-01-02T10:04:59.388Z,100925.72
2023-01-02T10:08:03.891Z,100921.81
2023-01-02T10:10:38.738Z,100918.63
2023-01-02T10:13:59.899Z,100919.84
2023-01-02T10:16:21.431Z,100918.66
2023-01-02T10:18:51.813Z,100906.25
2023-01-02T10:21:25.571Z,100889.06
2023-01-02T10:24:05.642Z,100909.38
2023-01-02T10:26:37.184Z,100911.75
2023-01-02T10:29:11.807Z,100904.66
2023-01-02T10:31:42.330Z,100899.28
2023-01-02T10:34:18.951Z,100890.66
2023-01-02T10:36:46.508Z,100891.09
2023-01-02T10:39:16.610Z,100887.59
2023-01-02T10:41:47.825Z,100884.78
2023-01-02T10:44:28.450Z,100888.75
2023-01-02T10:46:55.697Z,100893.84
2023-01-02T10:49:23.784Z,100900.84
2023-01-02T10:52:19.545Z,100892.84
2023-01-02T10:54:59.461Z,100894.84
2023-01-02T10:57:47.384Z,100895.59
2023-01-02T11:00:25.658Z,100890.97
2023-01-02T11:02:57.204Z,100890.28
2023-01-02T11:05:26.341Z,100896.13
2023-01-02T11:07:53.373Z,100902.28
2023-01-02T11:10:32.421Z,100897.25
2023-01-02T11:13:03.474Z,100895.25
2023-01-02T11:15:34.376Z,100887.44
2023-01-02T11:18:01.057Z,100883.25
2023-01-02T11:20:30.227Z,100886.44
2023-01-02T11:22:59.370Z,100877.38
2023-01-02T11:25:28.372Z,100872.25
2023-01-02T11:28:01.735Z,100857.38
2023-01-02T11:30:43.972Z,100871.38
2023-01-02T11:33:13.436Z,100875.31
2023-01-02T11:35:46.328Z,100878.84
2023-01-02T11:38:28.970Z,100884.34
2023-01-02T11:41:01.809Z,100883.91
2023-01-02T11:43:49.063Z,100890.88
2023-01-02T11:46:37.000Z,100880.78
2023-01-02T11:49:06.910Z,100879.72
2023-01-02T11:51:35.291Z,100883.22
2023-01-02T11:54:04.826Z,100886.41
2023-01-02T11:56:36.262Z,100890.31
2023-01-02T11:59:16.501Z,100886.31
2023-01-02T12:01:55.310Z,100887.50
2023-01-02T12:04:23.507Z,100888.34
2023-01-02T12:07:02.171Z,100894.00
2023-01-02T12:09:56.416Z,100893.19
2023-01-02T12:12:35.908Z,100880.03
2023-01-02T12:15:08.636Z,100884.81
2023-01-02T12:17:54.407Z,100881.72
2023-01-02T12:20:26.450Z,100886.03
2023-01-02T12:22:59.162Z,100892.59
2023-01-02T12:25:45.727Z,100900.44
2023-01-02T12:28:17.694Z,100903.88
2023-01-02T12:30:55.301Z,100904.91
2023-01-02T12:33:54.747Z,100907.84
2023-01-02T12:36:33.120Z,100914.53
2023-01-02T12:39:30.887Z,100907.69
2023-01-02T12:42:14.248Z,100900.81
2023-01-02T12:44:49.102Z,100904.28
2023-01-02T12:47:24.253Z,100908.59
2023-01-02T12:50:03.791Z,100912.06
2023-01-02T12:52:36.496Z,100932.50
2023-01-02T12:55:24.796Z,100915.25
2023-01-02T12:58:14.958Z,100912.84
2023-01-02T13:01:03.836Z,100908.50
2023-01-02T13:03:46.027Z,100915.13
2023-01-02T13:06:44.347Z,100916.22
2023-01-02T13:09:40.036Z,100916.97
2023-01-02T13:12:14.420Z,100920.59
2023-01-02T13:15:01.071Z,100904.66
2023-01-02T13:17:35.886Z,100902.75
2023-01-02T13:20:36.041Z,100908.69
2023-01-02T13:23:20.869Z,100902.84
2023-01-02T13:25:50.743Z,100916.97
2023-01-02T13:28:18.648Z,100912.34
2023-01-02T13:31:44.174Z,100924.03
2023-01-02T13:33:53.413Z,100915.09
2023-01-02T13:36:24.170Z,100920.94
2023-01-02T13:38:54.903Z,100919.41
2023-01-02T13:41:22.120Z,100940.75
2023-01-02T13:43:56.944Z,100945.00
2023-01-02T13:49:19.848Z,100937.38
2023-01-02T13:51:46.771Z,100939.28
2023-01-02T13:54:20.545Z,100938.94
2023-01-02T13:57:17.196Z,100940.88
2023-01-02T14:00:00.858Z,100945.28
2023-01-02T14:02:27.631Z,100938.66
2023-01-02T14:04:54.495Z,100951.13
2023-01-02T14:07:27.541Z,100942.19
2023-01-02T14:10:09.116Z,100940.22
2023-01-02T14:12:55.640Z,100949.63
2023-01-02T14:15:24.687Z,100953.16
2023-01-02T14:17:51.182Z,100953.16
2023-01-02T14:20:22.853Z,100953.91
2023-01-02T14:23:04.357Z,100956.31
2023-01-02T14:25:32.080Z,100953.91
2023-01-02T14:28:03.946Z,100958.59
2023-01-02T14:30:31.585Z,100967.19
2023-01-02T14:32:59.504Z,100963.34
2023-01-02T14:35:33.942Z,100968.72
2023-01-02T14:38:30.945Z,100985.38
2023-01-02T14:41:17.505Z,100984.34
2023-01-02T14:43:44.567Z,100983.56
2023-01-02T14:46:19.881Z,100982.00
2023-01-02T14:49:24.803Z,100985.09
2023-01-02T14:52:01.888Z,100982.38
2023-01-02T14:55:01.154Z,100978.09
2023-01-02T14:57:31.681Z,100981.69
2023-01-02T15:00:01.340Z,100974.31
2023-01-02T15:02:31.118Z,100971.16
2023-01-02T15:05:06.189Z,100987.53
2023-01-02T15:07:36.928Z,100990.72
2023-01-02T15:10:07.176Z,100993.06
2023-01-02T15:13:02.081Z,101007.41
2023-01-02T15:15:30.748Z,101011.28
2023-01-02T15:18:02.945Z,101024.97
2023-01-02T15:20:31.148Z,101028.09
2023-01-02T15:22:58.975Z,101047.63
2023-01-02T15:25:41.504Z,101052.88
2023-01-02T15:28:31.974Z,101054.50
2023-01-02T15:30:59.675Z,101056.75
2023-01-02T15:33:30.322Z,101064.44
2023-01-02T15:36:00.699Z,101075.66
2023-01-02T15:38:27.282Z,101084.59
2023-01-02T15:40:55.478Z,101088.09
2023-01-02T15:43:40.663Z,101099.00
2023-01-02T15:46:07.451Z,101108.69
2023-01-02T15:48:34.372Z,101107.94
2023-01-02T15:51:01.271Z,101111.81
2023-01-02T15:53:28.786Z,101116.72
2023-01-02T15:55:56.136Z,101118.59
2023-01-02T15:58:30.917Z,101112.69
2023-01-02T16:01:21.096Z,101118.59
2023-01-02T16:04:01.175Z,101115.94
2023-01-02T16:06:40.933Z,101131.78
2023-01-02T16:09:18.054Z,101132.09
2023-01-02T16:11:47.427Z,101138.94
2023-01-02T16:14:19.775Z,101140.16
2023-01-02T16:16:50.801Z,101142.72
2023-01-02T16:19:37.616Z,101151.66
2023-01-02T16:22:10.085Z,101154.56
2023-01-02T16:24:45.871Z,101157.66
2023-01-02T16:27:14.116Z,101152.44
2023-01-02T16:29:42.731Z,101161.69
2023-01-02T16:32:27.695Z,101172.44
2023-01-02T16:35:23.486Z,101176.63
2023-01-02T16:38:18.781Z,101173.66
2023-01-02T16:40:59.871Z,101176.09
2023-01-02T16:43:30.950Z,101179.97
2023-01-02T16:45:58.339Z,101188.06
2023-01-02T16:48:28.244Z,101183.19
2023-01-02T16:50:56.205Z,101186.06
2023-01-02T16:53:29.080Z,101196.47
2023-01-02T16:55:58.803Z,101207.56
2023-01-02T16:58:25.510Z,101208.38
2023-01-02T17:00:53.899Z,101215.56
2023-01-02T17:03:25.959Z,101225.75
2023-01-02T17:06:01.562Z,101228.47
2023-01-02T17:08:31.253Z,101234.44
2023-01-02T17:10:58.881Z,101223.91
2023-01-02T17:13:26.062Z,101234.19
2023-01-02T17:15:52.667Z,101228.84
2023-01-02T17:18:19.235Z,101233.75
2023-01-02T17:20:45.774Z,101239.28
2023-01-02T17:23:12.266Z,101246.63
2023-01-02T17:25:40.954Z,101235.75
2023-01-02T17:28:07.614Z,101236.44
2023-01-02T17:30:34.176Z,101241.19
2023-01-02T17:33:04.229Z,101240.06
2023-01-02T17:35:31.238Z,101242.22
2023-01-02T17:37:57.768Z,101246.34
2023-01-02T17:40:27.251Z,101245.19
2023-01-02T17:42:54.038Z,101247.47
2023-01-02T17:45:20.699Z,101260.00
2023-01-02T17:48:01.300Z,101265.41
2023-01-02T17:50:31.402Z,101257.19
2023-01-02T17:52:58.208Z,101277.25
2023-01-02T17:55:24.796Z,101287.63
2023-01-02T17:57:51.356Z,101289.34
2023-01-02T18:00:18.347Z,101280.72
2023-01-02T18:02:45.164Z,101298.59
2023-01-02T18:05:11.811Z,101299.63
2023-01-02T18:07:38.685Z,101298.31
2023-01-02T18:10:08.519Z,101302.84
2023-01-02T18:12:37.928Z,101302.25
2023-01-02T18:15:12.503Z,101292.78
2023-01-02T18:17:39.095Z,101302.06
2023-01-02T18:20:10.153Z,101300.13
2023-01-02T18:22:36.620Z,101292.06
2023-01-02T18:25:17.452Z,101292.97
2023-01-02T18:27:45.224Z,101288.66
2023-01-02T18:30:17.238Z,101298.25
2023-01-02T18:32:44.470Z,101299.50
2023-01-02T18:35:55.369Z,101300.88
2023-01-02T18:38:19.254Z,101316.59
2023-01-02T18:40:46.305Z,101322.25
2023-01-02T18:43:20.802Z,101331.41
2023-01-02T18:45:52.108Z,101329.25
2023-01-02T18:48:19.650Z,101337.25
2023-01-02T18:50:54.178Z,101336.94
2023-01-02T18:53:23.479Z,101342.47
2023-01-02T18:55:50.992Z,101344.50
2023-01-02T18:58:30.084Z,101344.16
2023-01-02T19:00:56.689Z,101337.59
2023-01-02T19:03:26.104Z,101348.00
2023-01-02T19:05:53.190Z,101347.66
2023-01-02T19:08:23.030Z,101352.41
2023-01-02T19:10:55.495Z,101356.94
2023-01-02T19:13:30.859Z,101359.22
2023-01-02T19:16:10.545Z,101364.63
2023-01-02T19:18:39.783Z,101364.75
2023-01-02T19:21:09.355Z,101369.41
2023-01-02T19:24:05.870Z,101374.38
2023-01-02T19:26:41.129Z,101364.44
2023-01-02T19:29:15.353Z,101382.31
2023-01-02T19:31:52.461Z,101391.13
2023-01-02T19:34:26.206Z,101390.66
2023-01-02T19:37:11.032Z,101398.13
2023-01-02T19:39:49.776Z,101394.84
2023-01-02T19:42:19.735Z,101399.72
2023-01-02T19:44:57.103Z,101403.31
2023-01-02T19:47:29.488Z,101404.00
2023-01-02T19:49:56.417Z,101403.88
2023-01-02T19:52:23.916Z,101407.84
2023-01-02T19:54:52.290Z,101408.75
2023-01-02T19:57:19.729Z,101409.44
2023-01-02T19:59:47.651Z,101412.59
2023-01-02T20:02:16.000Z,101416.63
2023-01-02T20:04:43.280Z,101418.88
2023-01-02T20:07:10.533Z,101419.09
2023-01-02T20:09:37.175Z,101426.75
2023-01-02T20:12:22.520Z,101413.19
2023-01-02T20:14:49.041Z,101408.25
2023-01-02T20:17:15.582Z,101420.22
2023-01-02T20:19:42.239Z,101401.91
2023-01-02T20:22:08.797Z,101403.25
2023-01-02T20:24:35.602Z,101408.78
2023-01-02T20:27:03.586Z,101405.06
2023-01-02T20:29:30.643Z,101412.16
2023-01-02T20:31:59.089Z,101413.03
2023-01-02T20:34:25.716Z,101421.97
2023-01-02T20:36:52.292Z,101421.16
2023-01-02T20:39:18.829Z,101442.97
2023-01-02T20:41:45.532Z,101453.38
2023-01-02T20:44:13.483Z,101463.06
2023-01-02T20:46:40.213Z,101467.38
2023-01-02T20:49:07.702Z,101468.94
2023-01-02T20:51:35.347Z,101471.09
2023-01-02T20:54:02.697Z,101485.50
2023-01-02T20:56:30.017Z,101492.97
2023-01-02T20:58:56.947Z,101503.69
2023-01-02T21:01:24.074Z,101516.44
2023-01-02T21:03:50.865Z,101526.94
2023-01-02T21:06:17.553Z,101529.34
2023-01-02T21:08:44.060Z,101526.16
2023-01-02T21:11:11.102Z,101525.38
2023-01-02T21:13:37.915Z,101531.63
2023-01-02T21:16:04.578Z,101531.81
2023-01-02T21:18:33.687Z,101541.69
2023-01-02T21:21:05.587Z,101527.78
2023-01-02T21:23:33.895Z,101530.66
2023-01-02T21:26:00.472Z,101546.09
2023-01-02T21:28:27.093Z,101552.53
2023-01-02T21:30:54.122Z,101555.25
2023-01-02T21:33:22.285Z,101558.91
2023-01-02T21:35:50.136Z,101562.31
2023-01-02T21:38:18.587Z,101568.84
2023-01-02T21:40:45.253Z,101572.88
2023-01-02T21:43:11.999Z,101568.28
2023-01-02T21:45:38.585Z,101571.78
2023-01-02T21:48:05.469Z,101578.66
2023-01-02T21:50:31.988Z,101587.56
2023-01-02T21:52:58.549Z,101585.19
2023-01-02T21:55:25.645Z,101587.91
2023-01-02T22:00:41.137Z,101584.44
2023-01-02T22:03:07.815Z,101591.44
2023-01-02T22:05:34.465Z,101595.72
2023-01-02T22:08:01.218Z,101608.50
2023-01-02T22:10:27.770Z,101608.16
2023-01-02T22:12:54.874Z,101610.53
2023-01-02T22:15:21.426Z,101606.56
2023-01-02T22:17:47.962Z,101617.41
2023-01-02T22:20:14.972Z,101615.50
2023-01-02T22:22:41.603Z,101622.97
2023-01-02T22:25:09.115Z,101632.34
2023-01-02T22:27:35.855Z,101629.97
2023-01-02T22:30:23.014Z,101620.09
2023-01-02T22:32:49.922Z,101623.66
2023-01-02T22:35:16.708Z,101627.94
2023-01-02T22:37:43.309Z,101641.34
2023-01-02T22:40:10.411Z,101634.66
2023-01-02T22:43:04.824Z,101637.84
2023-01-02T22:45:47.453Z,101647.56
2023-01-02T22:48:18.251Z,101644.09
2023-01-02T22:50:45.870Z,101648.25
2023-01-02T22:53:27.537Z,101657.66
2023-01-02T22:55:54.153Z,101657.50
2023-01-02T22:58:21.222Z,101657.16
2023-01-02T23:00:54.766Z,101655.91
2023-01-02T23:03:21.564Z,101662.75
2023-01-02T23:05:48.123Z,101668.84
2023-01-02T23:08:14.870Z,101663.59
2023-01-02T23:10:41.922Z,101661.03
2023-01-02T23:13:08.498Z,101663.28
2023-01-02T23:15:35.159Z,101666.28
2023-01-02T23:18:20.376Z,101674.09
2023-01-02T23:20:46.897Z,101673.28
2023-01-02T23:23:13.465Z,101672.19
2023-01-02T23:25:42.324Z,101671.41
2023-01-02T23:28:08.928Z,101684.63
2023-01-02T23:30:35.472Z,101681.28
2023-01-02T23:33:02.008Z,101678.41
2023-01-02T23:35:28.536Z,101675.53
2023-01-02T23:37:55.154Z,101683.34
2023-01-02T23:40:21.670Z,101694.16
2023-01-02T23:42:48.283Z,101691.44
2023-01-02T23:45:14.859Z,101686.19
2023-01-02T23:47:41.385Z,101697.16
2023-01-02T23:50:08.153Z,101701.94
2023-01-02T23:52:34.679Z,101705.75
2023-01-02T23:55:01.190Z,101697.81
2023-01-02T23:57:28.104Z,101703.06
2023-01-02T23:59:54.641Z,101706.88
